Terminal Aerodrome Forecast
Issued by NWS

Home | Current Version | Previous Version | Graphics & Text | Print | Product List | Glossary On
Versions: 1 2 3 4 5 6 7 8 9 10 11 12 13 14 15 16 17 18
000
FTUS43 KMPX 162300
TAFRWF
TAF
KRWF 162332Z 1700/1724 02017G25KT 1/2SM SN FZFG OVC006
     FM170100 01015G24KT 2SM -SN BR OVC007
     FM170300 34016G24KT 5SM BR OVC015
     FM170800 33012G20KT P6SM BKN020
     FM171200 34011KT P6SM OVC025
     FM171800 34005KT P6SM BKN050=

USA.gov is the U.S. government's official web portal to all federal, state and local government web resources and services.